createdAt,value
2018-12-29T00:00:48.151Z,86.05
2018-12-29T00:03:16.997Z,86.27
2018-12-29T00:05:46.368Z,86.24
2018-12-29T00:08:15.295Z,86.55
2018-12-29T00:10:45.580Z,86.33
2018-12-29T00:13:14.363Z,86.72
2018-12-29T00:15:43.176Z,86.80
2018-12-29T00:18:11.983Z,87.01
2018-12-29T00:20:40.772Z,86.55
2018-12-29T00:23:09.563Z,86.40
2018-12-29T00:25:38.426Z,86.92
2018-12-29T00:28:07.219Z,86.43
2018-12-29T00:30:37.122Z,86.78
2018-12-29T00:33:05.935Z,86.86
2018-12-29T00:35:34.770Z,86.78
2018-12-29T00:38:03.623Z,86.68
2018-12-29T00:40:32.412Z,86.71
2018-12-29T00:43:01.244Z,86.94
2018-12-29T00:45:30.115Z,86.53
2018-12-29T00:47:58.966Z,86.92
2018-12-29T00:50:27.816Z,86.94
2018-12-29T00:52:56.847Z,86.97
2018-12-29T00:55:25.728Z,86.58
2018-12-29T00:57:54.522Z,86.70
2018-12-29T01:00:23.410Z,87.13
2018-12-29T01:02:52.253Z,86.35
2018-12-29T01:05:21.039Z,86.66
2018-12-29T01:07:49.878Z,86.78
2018-12-29T01:10:18.667Z,87.01
2018-12-29T01:12:47.463Z,87.13
2018-12-29T01:15:16.264Z,86.97
2018-12-29T01:17:45.675Z,86.62
2018-12-29T01:20:15.117Z,86.67
2018-12-29T01:22:43.940Z,87.00
2018-12-29T01:25:13.723Z,86.92
2018-12-29T01:27:43.066Z,86.69
2018-12-29T01:30:11.837Z,87.06
2018-12-29T01:32:40.635Z,86.69
2018-12-29T01:35:09.432Z,87.28
2018-12-29T01:37:38.935Z,86.76
2018-12-29T01:40:07.812Z,87.35
2018-12-29T01:42:36.587Z,87.19
2018-12-29T01:45:05.720Z,86.80
2018-12-29T01:47:34.563Z,87.06
2018-12-29T01:50:03.361Z,86.61
2018-12-29T01:52:32.143Z,87.36
2018-12-29T01:55:00.979Z,87.08
2018-12-29T01:57:29.980Z,87.09
2018-12-29T01:59:58.809Z,87.18
2018-12-29T02:02:27.620Z,87.17
2018-12-29T02:04:56.431Z,86.95
2018-12-29T02:07:25.267Z,87.26
2018-12-29T02:09:54.052Z,87.03
2018-12-29T02:12:23.273Z,87.01
2018-12-29T02:14:52.080Z,87.51
2018-12-29T02:17:20.869Z,87.44
2018-12-29T02:19:49.664Z,86.99
2018-12-29T02:22:18.492Z,87.48
2018-12-29T02:24:47.322Z,87.17
2018-12-29T02:27:16.202Z,87.19
2018-12-29T02:29:44.997Z,87.70
2018-12-29T02:32:13.883Z,87.64
2018-12-29T02:34:42.724Z,87.10
2018-12-29T02:37:11.555Z,87.51
2018-12-29T02:39:40.356Z,87.66
2018-12-29T02:42:09.883Z,87.83
2018-12-29T02:44:40.419Z,87.83
2018-12-29T02:47:09.280Z,87.69
2018-12-29T02:49:38.076Z,87.47
2018-12-29T02:52:06.965Z,87.66
2018-12-29T02:54:35.825Z,87.55
2018-12-29T02:57:04.627Z,87.61
2018-12-29T02:59:34.379Z,87.81
2018-12-29T03:02:03.958Z,87.86
2018-12-29T03:04:32.747Z,87.71
2018-12-29T03:07:02.707Z,88.23
2018-12-29T03:09:32.392Z,88.32
2018-12-29T03:12:01.538Z,87.91
2018-12-29T03:14:30.347Z,88.40
2018-12-29T03:16:59.221Z,87.79
2018-12-29T03:19:29.319Z,87.96
2018-12-29T03:21:58.234Z,88.34
2018-12-29T03:24:27.151Z,88.81
2018-12-29T03:26:56.690Z,88.15
2018-12-29T03:29:25.550Z,88.88
2018-12-29T03:31:54.394Z,88.62
2018-12-29T03:34:23.176Z,88.27
2018-12-29T03:36:52.018Z,88.10
2018-12-29T03:39:20.815Z,88.14
2018-12-29T03:41:49.643Z,88.47
2018-12-29T03:44:18.452Z,87.95
2018-12-29T03:46:47.296Z,88.46
2018-12-29T03:49:16.962Z,88.84
2018-12-29T03:51:45.775Z,88.36
2018-12-29T03:54:14.563Z,88.30
2018-12-29T03:56:43.847Z,88.15
2018-12-29T03:59:13.330Z,88.60
2018-12-29T04:01:42.139Z,88.31
2018-12-29T04:04:11.020Z,88.32
2018-12-29T04:06:41.557Z,88.25
2018-12-29T04:09:25.696Z,88.31
2018-12-29T04:11:54.495Z,88.27
2018-12-29T04:14:24.447Z,88.76
2018-12-29T04:16:54.289Z,88.34
2018-12-29T04:19:23.158Z,88.71
2018-12-29T04:21:52.799Z,88.50
2018-12-29T04:24:22.453Z,88.75
2018-12-29T04:26:51.273Z,88.85
2018-12-29T04:29:20.155Z,88.97
2018-12-29T04:31:48.971Z,88.35
2018-12-29T04:34:17.799Z,88.20
2018-12-29T04:36:47.432Z,88.58
2018-12-29T04:39:16.251Z,88.74
2018-12-29T04:41:45.147Z,88.41
2018-12-29T04:44:13.938Z,88.44
2018-12-29T04:46:42.904Z,88.74
2018-12-29T04:49:11.744Z,88.13
2018-12-29T04:51:40.533Z,88.66
2018-12-29T04:54:09.437Z,88.51
2018-12-29T04:56:38.237Z,87.88
2018-12-29T04:59:07.086Z,87.82
2018-12-29T05:01:36.543Z,88.58
2018-12-29T05:04:05.431Z,88.37
2018-12-29T05:06:34.231Z,88.10
2018-12-29T05:09:03.062Z,88.15
2018-12-29T05:11:32.545Z,87.96
2018-12-29T05:14:02.424Z,88.40
2018-12-29T05:16:31.562Z,87.76
2018-12-29T05:19:00.447Z,88.14
2018-12-29T05:21:30.135Z,88.10
2018-12-29T05:23:58.987Z,88.01
2018-12-29T05:26:29.130Z,87.88
2018-12-29T05:28:57.882Z,88.37
2018-12-29T05:31:26.744Z,87.95
2018-12-29T05:33:55.596Z,88.41
2018-12-29T05:36:24.425Z,88.02
2018-12-29T05:38:53.206Z,87.86
2018-12-29T05:41:22.876Z,87.89
2018-12-29T05:43:51.714Z,88.70
2018-12-29T05:46:20.785Z,88.00
2018-12-29T05:48:50.589Z,88.14
2018-12-29T05:51:19.489Z,88.12
2018-12-29T05:53:48.315Z,88.22
2018-12-29T05:56:17.942Z,88.44
2018-12-29T05:58:45.946Z,88.51
2018-12-29T06:01:14.842Z,88.51
2018-12-29T06:03:43.631Z,88.64
2018-12-29T06:06:13.774Z,88.05
2018-12-29T06:08:43.547Z,88.45
2018-12-29T06:11:12.375Z,88.71
2018-12-29T06:13:41.167Z,88.33
2018-12-29T06:16:11.676Z,88.46
2018-12-29T06:18:40.883Z,88.24
2018-12-29T06:21:09.640Z,88.31
2018-12-29T06:23:38.480Z,87.97
2018-12-29T06:26:07.267Z,88.56
2018-12-29T06:28:36.144Z,88.24
2018-12-29T06:31:05.015Z,88.42
2018-12-29T06:33:37.861Z,87.82
2018-12-29T06:36:06.684Z,87.97
2018-12-29T06:38:35.460Z,88.32
2018-12-29T06:41:04.280Z,88.22
2018-12-29T06:43:33.437Z,88.01
2018-12-29T06:46:02.210Z,87.92
2018-12-29T06:48:31.062Z,87.70
2018-12-29T06:50:59.928Z,88.67
2018-12-29T06:53:29.307Z,87.87
2018-12-29T06:55:58.172Z,87.99
2018-12-29T06:58:27.039Z,88.16
2018-12-29T07:00:55.820Z,87.91
2018-12-29T07:03:25.415Z,88.13
2018-12-29T07:05:54.246Z,88.09
2018-12-29T07:08:23.039Z,88.71
2018-12-29T07:10:52.760Z,88.46
2018-12-29T07:13:23.430Z,88.16
2018-12-29T07:15:52.479Z,88.56
2018-12-29T07:18:21.256Z,88.40
2018-12-29T07:20:50.098Z,88.55
2018-12-29T07:23:18.927Z,88.35
2018-12-29T07:25:47.825Z,88.40
2018-12-29T07:28:16.648Z,88.40
2018-12-29T07:30:45.550Z,88.89
2018-12-29T07:33:14.339Z,88.49
2018-12-29T07:35:43.935Z,88.40
2018-12-29T07:38:13.359Z,88.79
2018-12-29T07:40:42.524Z,88.93
2018-12-29T07:43:11.311Z,88.88
2018-12-29T07:45:40.203Z,88.70
2018-12-29T07:48:09.060Z,88.86
2018-12-29T07:50:37.925Z,88.88
2018-12-29T07:53:08.548Z,89.25
2018-12-29T07:55:37.345Z,89.27
2018-12-29T07:58:06.221Z,89.16
2018-12-29T08:00:35.089Z,88.82
2018-12-29T08:03:03.844Z,89.37
2018-12-29T08:05:33.389Z,88.78
2018-12-29T08:08:02.911Z,88.76
2018-12-29T08:10:32.605Z,88.91
2018-12-29T08:13:01.403Z,88.90
2018-12-29T08:15:30.303Z,88.92
2018-12-29T08:17:59.495Z,89.05
2018-12-29T08:20:30.050Z,88.35
2018-12-29T08:22:58.856Z,89.14
2018-12-29T08:25:27.724Z,89.05
2018-12-29T08:27:56.609Z,89.19
2018-12-29T08:30:25.419Z,89.27
2018-12-29T08:32:54.205Z,89.01
2018-12-29T08:35:22.987Z,89.38
2018-12-29T08:37:52.264Z,88.71
2018-12-29T08:40:22.131Z,88.85
2018-12-29T08:42:52.408Z,89.15
2018-12-29T08:45:21.208Z,88.83
2018-12-29T08:47:50.004Z,89.19
2018-12-29T08:50:18.782Z,89.10
2018-12-29T08:52:47.587Z,88.81
2018-12-29T08:56:53.139Z,88.93
2018-12-29T08:59:21.942Z,88.61
2018-12-29T09:01:51.389Z,88.76
2018-12-29T09:04:20.182Z,89.00
2018-12-29T09:06:49.271Z,88.58
2018-12-29T09:09:18.086Z,88.73
2018-12-29T09:11:46.892Z,88.42
2018-12-29T09:14:16.283Z,88.88
2018-12-29T09:16:45.083Z,88.67
2018-12-29T09:19:13.931Z,88.73
2018-12-29T09:21:42.742Z,88.39
2018-12-29T09:24:12.176Z,88.17
2018-12-29T09:26:41.012Z,88.21
2018-12-29T09:29:10.514Z,88.09
2018-12-29T09:31:40.539Z,88.10
2018-12-29T09:34:09.336Z,88.01
2018-12-29T09:36:38.212Z,88.35
2018-12-29T09:39:07.639Z,87.95
2018-12-29T09:41:36.452Z,88.37
2018-12-29T09:44:05.264Z,88.27
2018-12-29T09:46:34.071Z,88.19
2018-12-29T09:49:03.839Z,88.04
2018-12-29T09:51:32.635Z,87.80
2018-12-29T09:56:36.426Z,87.95
2018-12-29T09:59:05.217Z,87.99
2018-12-29T10:01:35.108Z,87.19
2018-12-29T10:04:04.683Z,87.74
2018-12-29T10:06:33.491Z,86.97
2018-12-29T10:09:03.446Z,87.37
2018-12-29T10:11:32.257Z,87.47
2018-12-29T10:14:01.830Z,87.38
2018-12-29T10:16:30.708Z,87.18
2018-12-29T10:19:00.900Z,87.16
2018-12-29T10:21:29.813Z,87.57
2018-12-29T10:23:58.603Z,87.20
2018-12-29T10:26:27.407Z,86.97
2018-12-29T10:28:56.199Z,87.03
2018-12-29T10:31:24.988Z,86.87
2018-12-29T10:33:55.280Z,87.09
2018-12-29T10:36:22.649Z,86.95
2018-12-29T10:38:51.520Z,86.62
2018-12-29T10:41:20.843Z,86.74
2018-12-29T10:43:49.667Z,87.30
2018-12-29T10:46:19.179Z,86.53
2018-12-29T10:48:47.972Z,86.29
2018-12-29T10:51:16.758Z,86.33
2018-12-29T10:53:45.572Z,86.78
2018-12-29T10:56:14.438Z,86.55
2018-12-29T10:58:45.320Z,86.51
2018-12-29T11:01:14.140Z,86.71
2018-12-29T11:03:43.878Z,85.98
2018-12-29T11:06:13.675Z,85.92
2018-12-29T11:08:42.489Z,85.60
2018-12-29T11:11:11.310Z,86.07
2018-12-29T11:13:40.165Z,85.35
2018-12-29T11:16:11.154Z,85.21
2018-12-29T11:18:40.636Z,85.06
2018-12-29T11:21:10.439Z,84.65
2018-12-29T11:23:39.306Z,85.09
2018-12-29T11:26:08.181Z,85.14
2018-12-29T11:28:37.042Z,85.74
2018-12-29T11:31:05.887Z,85.32
2018-12-29T11:33:34.794Z,85.62
2018-12-29T11:36:03.868Z,85.37
2018-12-29T11:38:32.716Z,85.75
2018-12-29T11:41:01.558Z,85.89
2018-12-29T11:43:30.812Z,86.08
2018-12-29T11:46:00.112Z,86.25
2018-12-29T11:48:28.920Z,85.88
2018-12-29T11:50:57.735Z,86.21
2018-12-29T11:53:26.625Z,85.62
2018-12-29T11:55:55.563Z,86.39
2018-12-29T11:58:29.584Z,86.28
2018-12-29T12:00:59.066Z,86.23
2018-12-29T12:03:27.874Z,86.19
2018-12-29T12:05:57.767Z,86.45
2018-12-29T12:08:26.554Z,86.20
2018-12-29T12:10:55.412Z,86.27
2018-12-29T12:13:24.255Z,86.58
2018-12-29T12:15:53.067Z,86.49
2018-12-29T12:18:23.882Z,87.02
2018-12-29T12:20:52.679Z,87.11
2018-12-29T12:23:21.508Z,87.18
2018-12-29T12:25:50.403Z,87.35
2018-12-29T12:28:19.177Z,87.80
2018-12-29T12:30:47.971Z,87.91
2018-12-29T12:33:17.515Z,87.46
2018-12-29T12:35:46.299Z,88.32
2018-12-29T12:38:15.119Z,88.02
2018-12-29T12:40:43.974Z,88.09
2018-12-29T12:43:12.809Z,88.01
2018-12-29T12:45:41.614Z,88.22
2018-12-29T12:48:10.402Z,88.21
2018-12-29T12:50:39.192Z,88.38
2018-12-29T12:53:08.155Z,88.58
2018-12-29T12:55:37.053Z,88.86
2018-12-29T12:58:05.956Z,88.82
2018-12-29T13:00:34.888Z,88.65
2018-12-29T13:03:03.727Z,88.54
2018-12-29T13:05:32.523Z,88.41
2018-12-29T13:08:01.317Z,88.85
2018-12-29T13:10:30.611Z,88.80
2018-12-29T13:13:00.185Z,88.61
2018-12-29T13:15:29.588Z,88.70
2018-12-29T13:17:58.360Z,89.18
2018-12-29T13:20:27.820Z,88.96
2018-12-29T13:22:56.727Z,89.16
2018-12-29T13:25:27.240Z,89.34
2018-12-29T13:27:56.091Z,89.47
2018-12-29T13:30:24.906Z,89.71
2018-12-29T13:32:54.324Z,89.26
2018-12-29T13:35:23.128Z,89.08
2018-12-29T13:37:51.927Z,89.36
2018-12-29T13:40:20.742Z,89.50
2018-12-29T13:42:56.604Z,89.87
2018-12-29T13:45:25.599Z,89.66
2018-12-29T13:47:54.388Z,89.69
2018-12-29T13:50:23.305Z,89.76
2018-12-29T13:52:52.228Z,89.57
2018-12-29T13:55:21.031Z,89.64
2018-12-29T13:57:49.844Z,89.84
2018-12-29T14:00:18.672Z,89.50
2018-12-29T14:02:47.481Z,90.17
2018-12-29T14:05:16.316Z,89.63
2018-12-29T14:07:45.824Z,89.84
2018-12-29T14:10:14.811Z,90.40
2018-12-29T14:12:43.625Z,89.98
2018-12-29T14:15:12.522Z,90.26
2018-12-29T14:17:41.326Z,90.61
2018-12-29T14:20:10.124Z,90.49
2018-12-29T14:22:39.886Z,90.88
2018-12-29T14:25:08.795Z,91.29
2018-12-29T14:27:37.685Z,91.23
2018-12-29T14:30:06.555Z,90.97
2018-12-29T14:32:35.427Z,90.85
2018-12-29T14:35:04.287Z,90.75
2018-12-29T14:37:33.095Z,90.95
2018-12-29T14:40:01.896Z,91.02
2018-12-29T14:42:31.743Z,90.97
2018-12-29T14:45:00.605Z,91.10
2018-12-29T14:47:29.456Z,91.17
2018-12-29T14:49:58.298Z,91.52
2018-12-29T14:52:27.108Z,91.30
2018-12-29T14:54:55.943Z,91.30
2018-12-29T14:57:24.743Z,91.50
2018-12-29T14:59:53.554Z,91.80
2018-12-29T15:02:22.358Z,91.54
2018-12-29T15:04:52.732Z,91.53
2018-12-29T15:07:20.085Z,92.13
2018-12-29T15:09:55.812Z,91.95
2018-12-29T15:12:24.636Z,92.53
2018-12-29T15:14:53.431Z,92.29
2018-12-29T15:17:22.216Z,92.50
2018-12-29T15:19:51.423Z,93.03
2018-12-29T15:22:21.979Z,92.92
2018-12-29T15:24:50.823Z,92.95
2018-12-29T15:27:23.327Z,93.09
2018-12-29T15:29:55.935Z,92.73
2018-12-29T15:32:24.721Z,93.08
2018-12-29T15:34:53.619Z,93.20
2018-12-29T15:37:22.446Z,92.41
2018-12-29T15:39:51.315Z,93.21
2018-12-29T15:42:20.795Z,93.54
2018-12-29T15:44:51.591Z,92.73
2018-12-29T15:47:22.173Z,93.33
2018-12-29T15:49:50.949Z,92.90
2018-12-29T15:52:19.774Z,92.80
2018-12-29T15:54:48.559Z,93.33
2018-12-29T15:57:17.459Z,93.47
2018-12-29T15:59:46.920Z,93.24
2018-12-29T16:02:20.500Z,93.52
2018-12-29T16:04:49.299Z,93.71
2018-12-29T16:07:18.103Z,93.79
2018-12-29T16:09:46.943Z,94.21
2018-12-29T16:12:15.710Z,94.13
2018-12-29T16:14:45.852Z,93.81
2018-12-29T16:17:13.391Z,94.00
2018-12-29T16:19:42.976Z,93.77
2018-12-29T16:22:13.009Z,93.87
2018-12-29T16:24:42.094Z,93.87
2018-12-29T16:27:11.672Z,93.77
2018-12-29T16:29:40.483Z,93.76
2018-12-29T16:32:09.311Z,93.64
2018-12-29T16:34:38.374Z,94.09
2018-12-29T16:37:07.175Z,94.13
2018-12-29T16:39:36.322Z,93.93
2018-12-29T16:42:05.220Z,94.13
2018-12-29T16:44:34.708Z,94.10
2018-12-29T16:47:03.514Z,93.96
2018-12-29T16:49:32.491Z,94.25
2018-12-29T16:52:02.944Z,94.25
2018-12-29T16:54:31.840Z,93.92
2018-12-29T16:57:00.733Z,93.86
2018-12-29T16:59:29.687Z,94.30
2018-12-29T17:01:58.524Z,94.10
2018-12-29T17:04:27.551Z,93.84
2018-12-29T17:06:56.382Z,94.33
2018-12-29T17:09:25.160Z,94.34
2018-12-29T17:12:03.031Z,93.75
2018-12-29T17:14:33.243Z,94.07
2018-12-29T17:17:25.821Z,93.93
2018-12-29T17:19:55.375Z,93.72
2018-12-29T17:22:24.278Z,93.88
2018-12-29T17:24:54.065Z,94.11
2018-12-29T17:27:22.861Z,93.71
2018-12-29T17:29:51.680Z,93.90
2018-12-29T17:32:22.352Z,93.89
2018-12-29T17:34:51.198Z,93.68
2018-12-29T17:37:19.984Z,93.88
2018-12-29T17:39:48.823Z,93.91
2018-12-29T17:42:17.703Z,94.06
2018-12-29T17:44:46.529Z,93.78
2018-12-29T17:47:19.027Z,93.75
2018-12-29T17:49:48.859Z,94.16
2018-12-29T17:52:18.203Z,93.82
2018-12-29T17:54:47.033Z,93.81
2018-12-29T17:57:15.848Z,93.91
2018-12-29T17:59:46.338Z,94.21
2018-12-29T18:02:15.828Z,93.90
2018-12-29T18:04:45.122Z,93.70
2018-12-29T18:07:13.957Z,94.01
2018-12-29T18:09:43.026Z,93.89
2018-12-29T18:12:11.904Z,93.73
2018-12-29T18:14:40.707Z,93.69
2018-12-29T18:17:09.514Z,93.58
2018-12-29T18:19:38.352Z,93.80
2018-12-29T18:22:07.189Z,93.43
2018-12-29T18:24:35.951Z,93.30
2018-12-29T18:27:04.750Z,93.03
2018-12-29T18:29:34.524Z,93.01
2018-12-29T18:32:03.359Z,92.44
2018-12-29T18:34:32.312Z,91.66
2018-12-29T18:37:01.281Z,91.21
2018-12-29T18:39:30.153Z,90.13
2018-12-29T18:41:58.937Z,90.08
2018-12-29T18:44:27.831Z,89.81
2018-12-29T18:46:56.638Z,89.78
2018-12-29T18:49:25.432Z,89.09
2018-12-29T18:51:54.281Z,89.32
2018-12-29T18:54:23.108Z,88.69
2018-12-29T18:56:52.058Z,88.70
2018-12-29T18:59:20.906Z,87.88
2018-12-29T19:01:57.401Z,88.60
2018-12-29T19:04:18.610Z,88.43
2018-12-29T19:06:48.235Z,87.84
2018-12-29T19:09:16.332Z,87.21
2018-12-29T19:11:45.144Z,87.16
2018-12-29T19:14:14.008Z,86.73
2018-12-29T19:16:43.298Z,86.08
2018-12-29T19:19:12.165Z,84.37
2018-12-29T19:21:40.966Z,84.82
2018-12-29T19:24:09.807Z,84.72
2018-12-29T19:26:38.731Z,83.42
2018-12-29T19:29:07.546Z,84.00
2018-12-29T19:31:44.211Z,83.83
2018-12-29T19:34:05.367Z,82.65
2018-12-29T19:36:34.276Z,83.05
2018-12-29T19:39:03.186Z,81.92
2018-12-29T19:41:31.977Z,82.78
2018-12-29T19:44:00.760Z,82.87
2018-12-29T19:46:29.614Z,81.91
2018-12-29T19:48:58.523Z,82.58
2018-12-29T19:51:27.311Z,82.25
2018-12-29T19:53:56.672Z,81.61
2018-12-29T19:56:25.512Z,82.63
2018-12-29T19:58:54.347Z,81.76
2018-12-29T20:01:23.207Z,81.20
2018-12-29T20:03:52.032Z,78.75
2018-12-29T20:06:21.519Z,79.46
2018-12-29T20:08:50.452Z,80.02
2018-12-29T20:11:19.309Z,79.04
2018-12-29T20:13:48.271Z,79.87
2018-12-29T20:16:17.232Z,80.15
2018-12-29T20:18:46.115Z,79.09
2018-12-29T20:21:14.924Z,79.61
2018-12-29T20:23:43.808Z,80.01
2018-12-29T20:26:12.640Z,79.49
2018-12-29T20:28:41.590Z,79.54
2018-12-29T20:31:10.451Z,79.39
2018-12-29T20:33:39.283Z,79.94
2018-12-29T20:36:08.111Z,80.10
2018-12-29T20:38:36.951Z,80.49
2018-12-29T20:41:05.843Z,80.89
2018-12-29T20:43:34.635Z,80.64
2018-12-29T20:46:03.465Z,80.96
2018-12-29T20:48:32.275Z,81.44
2018-12-29T20:51:01.139Z,81.39
2018-12-29T20:53:29.958Z,81.44
2018-12-29T20:56:03.036Z,81.34
2018-12-29T20:58:32.743Z,80.36
2018-12-29T21:01:02.115Z,80.46
2018-12-29T21:03:30.924Z,80.67
2018-12-29T21:05:59.795Z,80.61
2018-12-29T21:08:28.583Z,79.67
2018-12-29T21:10:57.415Z,80.34
2018-12-29T21:13:26.242Z,80.12
2018-12-29T21:15:58.655Z,80.28
2018-12-29T21:18:27.558Z,79.66
2018-12-29T21:20:56.336Z,79.49
2018-12-29T21:23:26.355Z,79.27
2018-12-29T21:25:55.153Z,79.68
2018-12-29T21:28:24.009Z,79.75
2018-12-29T21:30:53.375Z,79.62
2018-12-29T21:33:22.208Z,79.42
2018-12-29T21:35:51.712Z,79.33
2018-12-29T21:38:20.495Z,79.82
2018-12-29T21:40:49.322Z,79.65
2018-12-29T21:43:18.211Z,79.05
2018-12-29T21:45:47.052Z,79.68
2018-12-29T21:48:15.858Z,79.47
2018-12-29T21:50:44.728Z,79.75
2018-12-29T21:53:15.425Z,79.66
2018-12-29T21:55:44.216Z,79.70
2018-12-29T21:58:13.028Z,79.72
2018-12-29T22:00:41.792Z,80.00
2018-12-29T22:03:10.610Z,79.32
2018-12-29T22:05:39.455Z,79.53
2018-12-29T22:08:08.392Z,79.78
2018-12-29T22:10:37.219Z,79.75
2018-12-29T22:13:06.054Z,79.92
2018-12-29T22:15:34.837Z,79.99
2018-12-29T22:18:03.624Z,80.21
2018-12-29T22:20:33.420Z,79.98
2018-12-29T22:23:01.844Z,79.88
2018-12-29T22:25:30.627Z,79.74
2018-12-29T22:27:59.461Z,80.18
2018-12-29T22:30:28.344Z,79.99
2018-12-29T22:32:57.116Z,80.18
2018-12-29T22:35:25.956Z,79.85
2018-12-29T22:37:54.744Z,79.94
2018-12-29T22:40:23.588Z,80.31
2018-12-29T22:42:53.747Z,80.33
2018-12-29T22:45:22.535Z,80.46
2018-12-29T22:47:51.352Z,80.36
2018-12-29T22:50:20.128Z,80.54
2018-12-29T22:52:48.920Z,80.68
2018-12-29T22:55:17.792Z,80.45
2018-12-29T22:57:46.579Z,80.57
2018-12-29T23:00:20.372Z,80.56
2018-12-29T23:02:49.995Z,80.64
2018-12-29T23:05:18.788Z,79.91
2018-12-29T23:07:47.601Z,80.71
2018-12-29T23:10:16.410Z,80.44
2018-12-29T23:12:45.205Z,80.73
2018-12-29T23:15:14.019Z,80.78
2018-12-29T23:17:42.815Z,80.82
2018-12-29T23:20:11.676Z,80.68
2018-12-29T23:22:41.194Z,80.97
2018-12-29T23:25:10.023Z,81.09
2018-12-29T23:27:38.807Z,80.94
2018-12-29T23:30:07.587Z,81.07
2018-12-29T23:32:36.444Z,81.09
2018-12-29T23:35:05.295Z,80.99
2018-12-29T23:37:34.802Z,81.03
2018-12-29T23:40:03.636Z,81.44
2018-12-29T23:42:32.464Z,81.48
2018-12-29T23:45:01.333Z,81.83
2018-12-29T23:47:30.223Z,81.64
2018-12-29T23:49:59.009Z,81.75
2018-12-29T23:52:29.007Z,81.84
2018-12-29T23:54:57.701Z,81.73
2018-12-29T23:57:27.400Z,81.80
2018-12-29T23:59:56.181Z,81.55
